Time;durP1;ratioP1;P1;durP2;ratioP2;P2;SDS_P1;SDS_P2;PMS_P1;PMS_P2;Temp;Humidity;BMP_temperature;BMP_pressure;BME280_temperature;BME280_humidity;BME280_pressure;Samples;Min_cycle;Max_cycle;Signal;HPM_P1;HPM_P2
2022/12/31 00:00:28;;;;;;;240.18;101.10;;;;;;;;;;5038111;28;20116;-77
2022/12/31 00:02:53;;;;;;;259.85;104.20;;;;;;;;;;5038361;28;20025;-77
2022/12/31 00:05:18;;;;;;;257.73;109.07;;;;;;;;;;5037936;28;20461;-77
2022/12/31 00:07:44;;;;;;;266.15;112.85;;;;;;;;;;5056135;28;20048;-78
2022/12/31 00:10:09;;;;;;;269.83;109.82;;;;;;;;;;5056036;28;20036;-76
2022/12/31 00:12:35;;;;;;;264.42;118.03;;;;;;;;;;5056162;28;20045;-78
2022/12/31 00:15:00;;;;;;;273.98;120.88;;;;;;;;;;5055967;28;20442;-78
2022/12/31 00:17:25;;;;;;;264.17;113.28;;;;;;;;;;5057683;28;20072;-76
2022/12/31 00:19:51;;;;;;;270.65;112.88;;;;;;;;;;5062328;28;20036;-77
2022/12/31 00:22:16;;;;;;;294.33;125.53;;;;;;;;;;5027936;28;20033;-77
2022/12/31 00:24:42;;;;;;;287.80;123.38;;;;;;;;;;5058342;28;20041;-77
2022/12/31 00:27:07;;;;;;;262.45;117.15;;;;;;;;;;5056112;28;20041;-77
2022/12/31 00:29:33;;;;;;;274.30;124.55;;;;;;;;;;5055222;28;20073;-77
2022/12/31 00:31:58;;;;;;;271.17;119.43;;;;;;;;;;5037495;28;20078;-77
2022/12/31 00:34:23;;;;;;;274.45;122.72;;;;;;;;;;5037797;28;20033;-78
2022/12/31 00:36:49;;;;;;;254.38;108.05;;;;;;;;;;5055599;28;20317;-77
2022/12/31 00:39:14;;;;;;;243.43;100.72;;;;;;;;;;5037549;28;20404;-77
2022/12/31 00:41:42;;;;;;;250.82;104.55;;;;;;;;;;5055465;28;20408;-77
2022/12/31 00:44:08;;;;;;;237.25;101.20;;;;;;;;;;5055386;28;20045;-78
2022/12/31 00:46:33;;;;;;;264.88;110.25;;;;;;;;;;5037533;28;20070;-77
2022/12/31 00:48:59;;;;;;;275.48;117.90;;;;;;;;;;5037126;28;20064;-76
2022/12/31 00:51:26;;;;;;;247.13;108.55;;;;;;;;;;5055481;28;20036;-77
2022/12/31 00:53:52;;;;;;;251.05;109.03;;;;;;;;;;5037257;28;20048;-77
2022/12/31 00:56:21;;;;;;;250.80;110.07;;;;;;;;;;5037366;28;20029;-76
2022/12/31 00:58:47;;;;;;;252.03;108.67;;;;;;;;;;5020812;28;20071;-76
2022/12/31 01:01:16;;;;;;;243.38;102.13;;;;;;;;;;5053787;28;20303;-76
2022/12/31 01:03:42;;;;;;;252.40;107.53;;;;;;;;;;5055007;28;20021;-77
2022/12/31 01:06:08;;;;;;;245.55;109.07;;;;;;;;;;5036830;28;20032;-76
2022/12/31 01:08:33;;;;;;;245.05;105.53;;;;;;;;;;5054387;28;20447;-77
2022/12/31 01:13:44;;;;;;;282.60;120.13;;;;;;;;;;5054575;28;20378;-76
2022/12/31 01:16:11;;;;;;;304.40;125.90;;;;;;;;;;5036932;28;20032;-76
2022/12/31 01:18:36;;;;;;;329.75;135.23;;;;;;;;;;5037079;28;20097;-76
2022/12/31 01:21:03;;;;;;;308.45;133.82;;;;;;;;;;5036990;28;20107;-76
2022/12/31 01:23:29;;;;;;;324.98;136.45;;;;;;;;;;5036657;28;20046;-76
2022/12/31 01:25:55;;;;;;;322.98;138.25;;;;;;;;;;5054596;28;20033;-76
2022/12/31 01:28:20;;;;;;;327.13;141.20;;;;;;;;;;5054264;28;20025;-76
2022/12/31 01:30:47;;;;;;;329.38;143.98;;;;;;;;;;5054622;28;20033;-76
2022/12/31 01:33:12;;;;;;;323.73;140.38;;;;;;;;;;5054431;28;20124;-76
2022/12/31 01:35:38;;;;;;;312.65;133.98;;;;;;;;;;5054389;28;20067;-77
2022/12/31 01:38:03;;;;;;;322.02;139.73;;;;;;;;;;5054136;28;20055;-76
2022/12/31 01:40:28;;;;;;;318.35;137.55;;;;;;;;;;5054467;28;20469;-77
2022/12/31 01:42:57;;;;;;;322.52;144.65;;;;;;;;;;5054267;28;20434;-77
2022/12/31 01:45:23;;;;;;;327.83;143.52;;;;;;;;;;5053153;28;20033;-76
2022/12/31 01:47:50;;;;;;;352.58;153.38;;;;;;;;;;5054448;28;20036;-76
2022/12/31 01:50:27;;;;;;;349.48;158.68;;;;;;;;;;5036201;28;20025;-76
2022/12/31 01:52:55;;;;;;;321.20;144.18;;;;;;;;;;5036236;28;20370;-76
2022/12/31 01:55:30;;;;;;;321.67;144.90;;;;;;;;;;5036448;28;20037;-76
2022/12/31 01:57:59;;;;;;;605.50;160.23;;;;;;;;;;5020531;28;20083;-76
2022/12/31 02:00:24;;;;;;;355.05;153.80;;;;;;;;;;5036326;28;20076;-76
2022/12/31 02:02:50;;;;;;;388.83;144.52;;;;;;;;;;5054144;28;20068;-76
2022/12/31 02:05:23;;;;;;;387.23;149.85;;;;;;;;;;5052593;28;20037;-76
2022/12/31 02:07:49;;;;;;;418.10;153.45;;;;;;;;;;5036765;28;20090;-77
2022/12/31 02:10:14;;;;;;;492.48;152.68;;;;;;;;;;5041247;28;20391;-76
2022/12/31 02:12:39;;;;;;;436.55;152.45;;;;;;;;;;5060750;28;20033;-76
2022/12/31 02:15:05;;;;;;;441.45;155.35;;;;;;;;;;5040457;28;20024;-76
2022/12/31 02:18:10;;;;;;;415.80;150.50;;;;;;;;;;5036568;28;20392;-76
2022/12/31 02:20:57;;;;;;;456.58;154.50;;;;;;;;;;5037783;28;20071;-76
2022/12/31 02:23:25;;;;;;;434.95;154.32;;;;;;;;;;5038246;28;20084;-76
2022/12/31 02:26:09;;;;;;;447.20;147.40;;;;;;;;;;5023392;28;20044;-76
2022/12/31 02:28:58;;;;;;;361.15;148.80;;;;;;;;;;5042039;28;20365;-76
2022/12/31 02:31:36;;;;;;;365.45;149.35;;;;;;;;;;5057895;28;20068;-76
2022/12/31 02:34:06;;;;;;;354.65;146.05;;;;;;;;;;5039446;28;20485;-77
2022/12/31 02:36:33;;;;;;;;;;;;;;;;;;5040401;28;20033;-77
2022/12/31 02:38:58;;;;;;;304.35;131.57;;;;;;;;;;5072972;28;20326;-76
2022/12/31 02:44:24;;;;;;;319.77;135.02;;;;;;;;;;5042200;28;20036;-76
2022/12/31 02:47:00;;;;;;;338.98;144.68;;;;;;;;;;5057303;28;20031;-77
2022/12/31 02:49:49;;;;;;;320.63;140.15;;;;;;;;;;5039266;28;20107;-76
2022/12/31 02:52:30;;;;;;;341.45;145.98;;;;;;;;;;5039689;28;20124;-77
2022/12/31 02:54:56;;;;;;;335.58;140.85;;;;;;;;;;5040343;28;20068;-76
2022/12/31 02:57:29;;;;;;;341.95;146.10;;;;;;;;;;5057145;28;20067;-76
2022/12/31 03:02:45;;;;;;;327.77;145.00;;;;;;;;;;5045746;28;20028;-76
2022/12/31 03:05:10;;;;;;;321.88;138.82;;;;;;;;;;5066358;28;20444;-76
2022/12/31 03:07:36;;;;;;;337.45;144.52;;;;;;;;;;5025618;28;20024;-76
2022/12/31 03:10:01;;;;;;;327.45;141.35;;;;;;;;;;5039714;28;20059;-76
2022/12/31 03:12:46;;;;;;;334.02;139.52;;;;;;;;;;5055561;28;20033;-76
2022/12/31 03:15:19;;;;;;;319.30;134.70;;;;;;;;;;5039156;28;20131;-76
2022/12/31 03:18:08;;;;;;;316.83;136.43;;;;;;;;;;5055623;28;20115;-76
2022/12/31 03:23:30;;;;;;;318.02;139.18;;;;;;;;;;5056710;28;20086;-75
2022/12/31 03:25:56;;;;;;;318.30;138.75;;;;;;;;;;5055832;28;20055;-76
2022/12/31 03:28:23;;;;;;;325.42;142.85;;;;;;;;;;5039034;28;20438;-76
2022/12/31 03:30:51;;;;;;;335.88;142.70;;;;;;;;;;5056458;28;20053;-76
2022/12/31 03:33:16;;;;;;;335.30;145.88;;;;;;;;;;5057168;28;20076;-76
2022/12/31 03:35:43;;;;;;;341.95;139.85;;;;;;;;;;5066808;28;20033;-76
2022/12/31 03:38:08;;;;;;;337.48;140.63;;;;;;;;;;5061432;28;20474;-76
2022/12/31 03:40:42;;;;;;;384.60;144.27;;;;;;;;;;5039689;28;20039;-76
2022/12/31 03:43:08;;;;;;;394.80;141.45;;;;;;;;;;5055344;28;20056;-76
2022/12/31 03:45:33;;;;;;;428.00;151.75;;;;;;;;;;5039032;28;20060;-76
2022/12/31 03:48:00;;;;;;;418.50;141.32;;;;;;;;;;5056207;28;20094;-76
2022/12/31 03:50:25;;;;;;;387.02;149.20;;;;;;;;;;5055211;28;20047;-76
2022/12/31 03:52:51;;;;;;;405.33;148.90;;;;;;;;;;5055076;28;20033;-76
2022/12/31 03:55:16;;;;;;;397.00;146.48;;;;;;;;;;5056050;28;20032;-77
2022/12/31 03:57:42;;;;;;;406.13;146.60;;;;;;;;;;5038167;28;20049;-77
2022/12/31 04:00:11;;;;;;;379.27;146.73;;;;;;;;;;5038086;28;20068;-77
2022/12/31 04:02:36;;;;;;;524.85;161.07;;;;;;;;;;5056165;28;20056;-76
2022/12/31 04:05:01;;;;;;;688.78;187.18;;;;;;;;;;5056324;28;20470;-77
2022/12/31 04:07:27;;;;;;;564.20;164.68;;;;;;;;;;5038014;28;20036;-75
2022/12/31 04:09:52;;;;;;;633.13;158.38;;;;;;;;;;5055752;28;20029;-78
2022/12/31 04:12:18;;;;;;;495.70;138.77;;;;;;;;;;5055998;28;20044;-78
2022/12/31 04:14:43;;;;;;;527.63;137.80;;;;;;;;;;5055934;28;20078;-78
2022/12/31 04:17:09;;;;;;;528.80;135.25;;;;;;;;;;5056066;28;20039;-78
2022/12/31 04:19:34;;;;;;;558.40;133.88;;;;;;;;;;5038149;28;20040;-78
2022/12/31 04:21:59;;;;;;;587.17;136.57;;;;;;;;;;5037934;28;20123;-78
2022/12/31 04:24:25;;;;;;;653.75;148.52;;;;;;;;;;5055811;28;20044;-75
2022/12/31 04:26:50;;;;;;;511.77;125.40;;;;;;;;;;5037926;28;20457;-78
2022/12/31 04:29:16;;;;;;;559.08;128.98;;;;;;;;;;5054142;28;20052;-78
2022/12/31 04:31:41;;;;;;;607.72;136.52;;;;;;;;;;5021142;28;20032;-78
2022/12/31 04:34:07;;;;;;;711.95;142.32;;;;;;;;;;5055270;28;20033;-78
2022/12/31 04:36:32;;;;;;;539.55;132.43;;;;;;;;;;5054531;28;20416;-78
2022/12/31 04:38:58;;;;;;;558.15;131.77;;;;;;;;;;5037752;28;20060;-78
2022/12/31 04:41:25;;;;;;;498.27;127.03;;;;;;;;;;5037364;28;20102;-78
2022/12/31 04:43:56;;;;;;;453.70;126.82;;;;;;;;;;5037524;28;20037;-78
2022/12/31 04:46:26;;;;;;;443.67;125.57;;;;;;;;;;5037123;28;20029;-78
2022/12/31 04:48:52;;;;;;;374.13;121.38;;;;;;;;;;5054164;28;20041;-78
2022/12/31 04:51:17;;;;;;;394.55;121.93;;;;;;;;;;5020687;28;20399;-78
2022/12/31 04:53:43;;;;;;;396.63;112.85;;;;;;;;;;5055028;28;20044;-78
2022/12/31 04:56:08;;;;;;;384.10;116.95;;;;;;;;;;5053945;28;20035;-78
2022/12/31 04:58:34;;;;;;;372.88;107.22;;;;;;;;;;5055294;28;20027;-77
2022/12/31 05:00:59;;;;;;;439.33;111.80;;;;;;;;;;5037060;28;20452;-78
2022/12/31 05:03:25;;;;;;;390.52;108.05;;;;;;;;;;5055080;28;20079;-77
2022/12/31 05:05:51;;;;;;;344.88;107.72;;;;;;;;;;5036985;28;20024;-76
2022/12/31 05:08:16;;;;;;;337.08;111.00;;;;;;;;;;5054925;28;20115;-77
2022/12/31 05:10:43;;;;;;;342.67;108.10;;;;;;;;;;5036817;28;20060;-77
2022/12/31 05:13:09;;;;;;;290.27;105.57;;;;;;;;;;5054704;28;20029;-77
2022/12/31 05:15:34;;;;;;;267.60;106.20;;;;;;;;;;5052980;28;20040;-77
2022/12/31 05:18:00;;;;;;;237.32;102.57;;;;;;;;;;5055026;28;20021;-77
2022/12/31 05:20:25;;;;;;;249.23;107.65;;;;;;;;;;5070094;28;20370;-77
2022/12/31 05:22:51;;;;;;;282.15;117.05;;;;;;;;;;5053498;28;20369;-78
2022/12/31 05:25:16;;;;;;;314.77;119.85;;;;;;;;;;5054679;28;20043;-78
2022/12/31 05:27:42;;;;;;;351.08;127.00;;;;;;;;;;5020312;28;20464;-78
2022/12/31 05:30:07;;;;;;;338.63;124.05;;;;;;;;;;5054196;28;20457;-78
2022/12/31 05:32:33;;;;;;;326.08;129.00;;;;;;;;;;5036969;28;20099;-78
2022/12/31 05:34:59;;;;;;;340.35;134.00;;;;;;;;;;5053342;28;20029;-77
2022/12/31 05:37:25;;;;;;;409.75;139.20;;;;;;;;;;5053292;28;20020;-77
2022/12/31 05:39:51;;;;;;;424.77;139.48;;;;;;;;;;5036521;28;20025;-77
2022/12/31 05:42:16;;;;;;;437.45;139.63;;;;;;;;;;5036089;28;20048;-76
2022/12/31 05:44:41;;;;;;;501.77;141.57;;;;;;;;;;5036224;28;20112;-78
2022/12/31 05:47:07;;;;;;;414.48;137.48;;;;;;;;;;5054285;28;20462;-78
2022/12/31 05:49:32;;;;;;;431.40;135.43;;;;;;;;;;5036418;28;20442;-77
2022/12/31 05:51:58;;;;;;;419.10;143.82;;;;;;;;;;5054245;28;20036;-78
2022/12/31 05:54:23;;;;;;;476.10;145.20;;;;;;;;;;5036450;28;20025;-78
2022/12/31 05:56:49;;;;;;;427.27;144.85;;;;;;;;;;5035973;28;20025;-77
2022/12/31 05:59:14;;;;;;;416.00;146.85;;;;;;;;;;5036406;28;20036;-77
2022/12/31 06:01:40;;;;;;;391.58;137.63;;;;;;;;;;5053858;28;20029;-77
2022/12/31 06:04:05;;;;;;;367.58;129.70;;;;;;;;;;5053768;28;20036;-78
2022/12/31 06:06:31;;;;;;;359.88;135.27;;;;;;;;;;5052661;28;20036;-77
2022/12/31 06:08:56;;;;;;;480.48;141.65;;;;;;;;;;5053864;28;20029;-77
2022/12/31 06:11:21;;;;;;;415.52;142.23;;;;;;;;;;5069519;28;20027;-77
2022/12/31 06:13:47;;;;;;;464.25;150.63;;;;;;;;;;5054355;28;20035;-78
2022/12/31 06:16:12;;;;;;;500.40;148.55;;;;;;;;;;5054861;28;20029;-77
2022/12/31 06:18:38;;;;;;;503.25;149.50;;;;;;;;;;5060168;28;20025;-76
2022/12/31 06:21:03;;;;;;;491.17;144.90;;;;;;;;;;5057948;28;20024;-77
2022/12/31 06:23:29;;;;;;;455.92;142.27;;;;;;;;;;5054275;28;20028;-77
2022/12/31 06:25:54;;;;;;;414.10;144.25;;;;;;;;;;5053534;28;20028;-77
2022/12/31 06:28:20;;;;;;;504.08;155.75;;;;;;;;;;5054231;28;20036;-78
2022/12/31 06:30:46;;;;;;;564.53;175.05;;;;;;;;;;5053771;28;20176;-77
2022/12/31 06:33:11;;;;;;;529.33;166.88;;;;;;;;;;5053940;28;20127;-77
2022/12/31 06:35:36;;;;;;;488.70;162.00;;;;;;;;;;5053908;28;20103;-77
2022/12/31 06:38:02;;;;;;;418.73;159.10;;;;;;;;;;5054067;28;20036;-77
2022/12/31 06:40:27;;;;;;;399.80;166.77;;;;;;;;;;5053902;28;20044;-77
2022/12/31 06:42:53;;;;;;;437.30;184.68;;;;;;;;;;5054518;28;21037;-77
2022/12/31 06:45:19;;;;;;;413.20;166.52;;;;;;;;;;5055455;28;20017;-78
2022/12/31 06:47:44;;;;;;;445.02;160.45;;;;;;;;;;5058352;28;20411;-77
2022/12/31 06:50:10;;;;;;;407.38;145.48;;;;;;;;;;5044590;28;20048;-78
2022/12/31 06:52:35;;;;;;;425.80;138.05;;;;;;;;;;5039362;28;20029;-77
2022/12/31 06:55:01;;;;;;;452.08;137.50;;;;;;;;;;5052395;28;20029;-77
2022/12/31 06:57:27;;;;;;;504.80;133.68;;;;;;;;;;5035765;28;20029;-77
2022/12/31 06:59:52;;;;;;;417.20;128.48;;;;;;;;;;5019708;28;20040;-77
2022/12/31 07:02:30;;;;;;;468.90;123.43;;;;;;;;;;5054091;28;20025;-77
2022/12/31 07:05:05;;;;;;;441.30;122.78;;;;;;;;;;5053684;28;20079;-77
2022/12/31 07:07:42;;;;;;;491.75;122.80;;;;;;;;;;5053504;28;20052;-77
2022/12/31 07:10:28;;;;;;;643.53;126.18;;;;;;;;;;5056520;28;20036;-77
2022/12/31 07:13:00;;;;;;;386.27;123.32;;;;;;;;;;5039231;28;20362;-77
2022/12/31 07:16:17;;;;;;;489.88;112.53;;;;;;;;;;5040676;28;20036;-77
2022/12/31 07:18:46;;;;;;;406.30;107.47;;;;;;;;;;5021290;28;20051;-77
2022/12/31 07:21:14;;;;;;;456.67;106.83;;;;;;;;;;5040731;28;20121;-77
2022/12/31 07:23:40;;;;;;;419.52;106.35;;;;;;;;;;5023596;28;20029;-77
2022/12/31 07:26:14;;;;;;;466.35;103.18;;;;;;;;;;5039132;28;20428;-78
2022/12/31 07:29:04;;;;;;;473.90;108.45;;;;;;;;;;5039934;28;20128;-78
2022/12/31 07:31:58;;;;;;;406.63;108.22;;;;;;;;;;5042335;28;20053;-77
2022/12/31 07:34:30;;;;;;;315.23;108.13;;;;;;;;;;5041735;28;20045;-77
2022/12/31 07:37:07;;;;;;;446.88;115.47;;;;;;;;;;5056520;28;20454;-77
2022/12/31 07:40:01;;;;;;;404.23;110.22;;;;;;;;;;5056231;28;20025;-77
2022/12/31 07:42:39;;;;;;;468.20;102.38;;;;;;;;;;5038869;28;20033;-78
2022/12/31 07:45:18;;;;;;;447.98;102.22;;;;;;;;;;5038935;28;20063;-78
2022/12/31 07:47:43;;;;;;;354.88;97.45;;;;;;;;;;5038545;28;20036;-77
2022/12/31 07:50:16;;;;;;;336.75;93.25;;;;;;;;;;5056249;28;20025;-77
2022/12/31 07:52:42;;;;;;;477.73;87.50;;;;;;;;;;5038620;28;20029;-77
2022/12/31 07:55:09;;;;;;;291.40;80.88;;;;;;;;;;5056105;28;20037;-77
2022/12/31 07:57:41;;;;;;;359.63;81.78;;;;;;;;;;5039109;28;20033;-77
2022/12/31 08:00:10;;;;;;;409.15;83.13;;;;;;;;;;5055065;28;20033;-77
2022/12/31 08:03:11;;;;;;;281.20;78.70;;;;;;;;;;5038785;28;20033;-77
2022/12/31 08:05:43;;;;;;;331.73;77.95;;;;;;;;;;5055796;28;20067;-77
2022/12/31 08:08:22;;;;;;;306.27;81.15;;;;;;;;;;5055549;28;20040;-78
2022/12/31 08:10:58;;;;;;;294.50;82.53;;;;;;;;;;5038370;28;20025;-77
2022/12/31 08:13:24;;;;;;;227.27;79.32;;;;;;;;;;5038203;28;20070;-76
2022/12/31 08:15:51;;;;;;;206.20;74.10;;;;;;;;;;5038205;28;20506;-77
2022/12/31 08:18:17;;;;;;;205.90;72.10;;;;;;;;;;5055800;28;20025;-77
2022/12/31 08:21:18;;;;;;;208.60;71.25;;;;;;;;;;5054335;28;20032;-77
2022/12/31 08:24:02;;;;;;;188.38;64.30;;;;;;;;;;5006536;28;20147;-77
2022/12/31 08:26:43;;;;;;;187.98;67.35;;;;;;;;;;5055512;28;20447;-78
2022/12/31 08:29:41;;;;;;;232.90;66.65;;;;;;;;;;5055565;28;20131;-77
2022/12/31 08:32:10;;;;;;;150.05;69.65;;;;;;;;;;5037539;28;20029;-77
2022/12/31 08:34:57;;;;;;;215.35;69.18;;;;;;;;;;5037714;28;20507;-77
2022/12/31 08:37:35;;;;;;;146.90;66.72;;;;;;;;;;5037543;28;20067;-77
2022/12/31 08:40:25;;;;;;;164.45;69.53;;;;;;;;;;5055564;28;20047;-77
2022/12/31 08:42:57;;;;;;;140.38;73.55;;;;;;;;;;5055509;28;20052;-77
2022/12/31 08:45:27;;;;;;;169.75;86.50;;;;;;;;;;5055199;28;20339;-77
2022/12/31 08:48:03;;;;;;;152.35;83.68;;;;;;;;;;5037313;28;20029;-78
2022/12/31 08:50:29;;;;;;;149.15;79.63;;;;;;;;;;5037517;28;20029;-78
2022/12/31 08:52:55;;;;;;;141.93;77.00;;;;;;;;;;5037363;28;20481;-76
2022/12/31 08:55:20;;;;;;;129.00;73.57;;;;;;;;;;5055220;28;20032;-77
2022/12/31 08:58:23;;;;;;;135.82;74.43;;;;;;;;;;5037247;28;20032;-76
2022/12/31 09:00:49;;;;;;;142.20;80.32;;;;;;;;;;5055149;28;20033;-78
2022/12/31 09:03:17;;;;;;;160.75;89.30;;;;;;;;;;5037429;28;20037;-77
2022/12/31 09:05:57;;;;;;;174.13;95.80;;;;;;;;;;5054881;28;20489;-77
2022/12/31 09:08:57;;;;;;;192.87;102.07;;;;;;;;;;5055111;28;20178;-76
2022/12/31 09:11:41;;;;;;;202.38;106.47;;;;;;;;;;5000675;28;20281;-77
2022/12/31 09:14:31;;;;;;;199.05;106.75;;;;;;;;;;5054711;28;20048;-77
2022/12/31 09:17:37;;;;;;;;;;;;;;;;;;;;;
2022/12/31 09:20:03;;;;;;;202.07;107.97;;;;;;;;;;5038306;28;20025;-77
2022/12/31 09:22:29;;;;;;;211.63;111.10;;;;;;;;;;5054864;28;20055;-77
2022/12/31 09:24:54;;;;;;;208.88;113.00;;;;;;;;;;5036828;28;20029;-76
2022/12/31 09:30:12;;;;;;;198.25;105.20;;;;;;;;;;5053458;28;20409;-78
2022/12/31 09:32:52;;;;;;;184.93;102.72;;;;;;;;;;5038825;28;20031;-78
2022/12/31 09:35:23;;;;;;;187.55;101.68;;;;;;;;;;5055729;28;20025;-78
2022/12/31 09:37:50;;;;;;;185.50;98.82;;;;;;;;;;5037135;28;20091;-78
2022/12/31 09:40:28;;;;;;;176.38;97.00;;;;;;;;;;5036983;28;20029;-78
2022/12/31 09:43:08;;;;;;;173.75;95.82;;;;;;;;;;5054400;28;20506;-78
2022/12/31 09:45:39;;;;;;;;;;;;;;;;;;5054976;28;20025;-77
2022/12/31 09:48:14;;;;;;;141.52;81.15;;;;;;;;;;5054250;28;19963;-77
2022/12/31 09:50:39;;;;;;;132.98;75.63;;;;;;;;;;5019815;28;20033;-78
2022/12/31 09:53:17;;;;;;;122.32;71.30;;;;;;;;;;5054162;28;20037;-78
2022/12/31 09:55:53;;;;;;;121.82;72.00;;;;;;;;;;5054252;28;20091;-77
2022/12/31 09:58:35;;;;;;;111.07;68.90;;;;;;;;;;5036220;28;20131;-78
2022/12/31 10:01:22;;;;;;;106.80;63.67;;;;;;;;;;5038198;28;20370;-78
2022/12/31 10:04:24;;;;;;;110.13;64.45;;;;;;;;;;5055219;28;20033;-77
2022/12/31 10:07:17;;;;;;;108.70;64.18;;;;;;;;;;5040910;28;20040;-78
2022/12/31 10:10:06;;;;;;;104.82;62.47;;;;;;;;;;5054620;28;20629;-78
2022/12/31 10:12:46;;;;;;;128.73;73.68;;;;;;;;;;5036575;28;20076;-78
2022/12/31 10:15:33;;;;;;;125.30;72.43;;;;;;;;;;5037973;28;20095;-75
2022/12/31 10:18:23;;;;;;;133.70;76.05;;;;;;;;;;5053611;28;20103;-78
2022/12/31 10:21:16;;;;;;;137.63;77.38;;;;;;;;;;5054028;28;20350;-79
2022/12/31 10:23:41;;;;;;;145.05;78.18;;;;;;;;;;5054131;28;20034;-76
2022/12/31 10:26:28;;;;;;;139.25;76.07;;;;;;;;;;5053930;28;20029;-76
2022/12/31 10:29:11;;;;;;;116.78;66.40;;;;;;;;;;5053507;28;20032;-76
2022/12/31 10:32:07;;;;;;;114.30;64.07;;;;;;;;;;5035973;28;20095;-76
2022/12/31 10:34:51;;;;;;;105.70;62.30;;;;;;;;;;4999422;28;20050;-75
2022/12/31 10:37:18;;;;;;;96.82;57.00;;;;;;;;;;5053859;28;20059;-76
2022/12/31 10:40:08;;;;;;;95.70;55.97;;;;;;;;;;5053550;28;20513;-75
2022/12/31 10:43:15;;;;;;;103.78;60.90;;;;;;;;;;5036109;28;20465;-78
2022/12/31 10:45:53;;;;;;;98.57;58.47;;;;;;;;;;5039617;28;20450;-78
2022/12/31 10:48:43;;;;;;;103.43;56.63;;;;;;;;;;5057456;28;20021;-79
2022/12/31 10:51:14;;;;;;;96.97;57.47;;;;;;;;;;5057680;28;20060;-77
2022/12/31 10:53:57;;;;;;;101.97;60.95;;;;;;;;;;5057227;28;20045;-77
2022/12/31 10:56:26;;;;;;;103.03;61.30;;;;;;;;;;5057727;28;20039;-77
2022/12/31 10:59:02;;;;;;;104.03;60.95;;;;;;;;;;5057401;28;20024;-77
2022/12/31 11:01:38;;;;;;;101.03;61.83;;;;;;;;;;5039609;28;20442;-77
2022/12/31 11:04:35;;;;;;;103.18;61.10;;;;;;;;;;5023819;28;20127;-76
2022/12/31 11:07:27;;;;;;;118.43;66.32;;;;;;;;;;5057376;28;20056;-76
2022/12/31 11:10:19;;;;;;;110.20;64.82;;;;;;;;;;5057191;28;20021;-76
2022/12/31 11:12:53;;;;;;;105.20;65.35;;;;;;;;;;5039400;28;20033;-76
2022/12/31 11:15:21;;;;;;;116.93;67.55;;;;;;;;;;5056921;28;20036;-76
2022/12/31 11:18:06;;;;;;;127.07;73.70;;;;;;;;;;5056647;28;20036;-76
2022/12/31 11:20:56;;;;;;;117.70;69.45;;;;;;;;;;5039180;28;20037;-76
2022/12/31 11:23:21;;;;;;;111.50;67.15;;;;;;;;;;5057091;28;20040;-77
2022/12/31 11:25:47;;;;;;;119.65;74.75;;;;;;;;;;5057047;28;20033;-76
2022/12/31 11:28:25;;;;;;;122.75;73.63;;;;;;;;;;5057151;28;20457;-78
2022/12/31 11:30:59;;;;;;;119.25;72.28;;;;;;;;;;5038604;28;20140;-76
2022/12/31 11:33:47;;;;;;;122.97;73.55;;;;;;;;;;5055584;28;20139;-76
2022/12/31 11:36:42;;;;;;;124.90;73.95;;;;;;;;;;5056669;28;20677;-77
2022/12/31 11:39:45;;;;;;;119.80;73.65;;;;;;;;;;5038957;28;20139;-77
2022/12/31 11:42:28;;;;;;;118.57;73.97;;;;;;;;;;5056545;28;20028;-77
2022/12/31 11:45:20;;;;;;;120.28;70.43;;;;;;;;;;5056241;28;20032;-77
2022/12/31 11:48:01;;;;;;;129.35;75.35;;;;;;;;;;5041376;28;20120;-76
2022/12/31 11:50:47;;;;;;;125.90;75.32;;;;;;;;;;5038644;28;20444;-76
2022/12/31 11:53:16;;;;;;;132.50;78.20;;;;;;;;;;5040879;28;20087;-76
2022/12/31 11:55:50;;;;;;;131.23;77.28;;;;;;;;;;5056102;28;20512;-76
2022/12/31 11:58:17;;;;;;;126.22;74.15;;;;;;;;;;5056475;28;20037;-77
2022/12/31 12:01:10;;;;;;;117.53;67.72;;;;;;;;;;5037957;28;20037;-75
2022/12/31 12:03:41;;;;;;;111.65;65.68;;;;;;;;;;5030239;28;20028;-78
2022/12/31 12:06:11;;;;;;;107.55;63.88;;;;;;;;;;5039309;28;20029;-78
2022/12/31 12:08:36;;;;;;;102.38;60.35;;;;;;;;;;5038434;28;20025;-77
2022/12/31 12:11:26;;;;;;;104.03;60.30;;;;;;;;;;5038442;28;20021;-78
2022/12/31 12:13:51;;;;;;;101.90;60.22;;;;;;;;;;5040670;28;20362;-77
2022/12/31 12:16:18;;;;;;;104.72;59.08;;;;;;;;;;5056149;28;20040;-78
2022/12/31 12:18:45;;;;;;;89.30;52.67;;;;;;;;;;5038042;28;20029;-78
2022/12/31 12:21:18;;;;;;;88.90;52.72;;;;;;;;;;5071624;28;20067;-78
2022/12/31 12:24:05;;;;;;;85.53;51.45;;;;;;;;;;5038336;28;20032;-78
2022/12/31 12:26:34;;;;;;;76.68;48.00;;;;;;;;;;5055899;28;20028;-78
2022/12/31 12:29:16;;;;;;;75.82;46.33;;;;;;;;;;5055208;28;20093;-78
2022/12/31 12:31:54;;;;;;;75.13;48.10;;;;;;;;;;5040760;28;20033;-78
2022/12/31 12:34:25;;;;;;;74.85;45.13;;;;;;;;;;5056396;28;20040;-78
2022/12/31 12:36:50;;;;;;;86.40;50.38;;;;;;;;;;5056904;28;20053;-78
2022/12/31 12:39:22;;;;;;;88.63;52.05;;;;;;;;;;5038130;28;20087;-77
2022/12/31 12:42:02;;;;;;;89.72;53.72;;;;;;;;;;5038632;28;20120;-77
2022/12/31 12:44:28;;;;;;;100.78;57.40;;;;;;;;;;5037761;28;20065;-78
2022/12/31 12:46:53;;;;;;;106.03;62.28;;;;;;;;;;5037621;28;20442;-78
2022/12/31 12:49:26;;;;;;;102.38;62.25;;;;;;;;;;5037918;28;20112;-78
2022/12/31 12:52:04;;;;;;;113.82;64.15;;;;;;;;;;5037807;28;20025;-77
2022/12/31 12:54:51;;;;;;;109.88;65.22;;;;;;;;;;5056135;28;20032;-77
2022/12/31 12:57:22;;;;;;;113.93;65.90;;;;;;;;;;5058332;28;20517;-77
2022/12/31 13:00:16;;;;;;;104.70;61.40;;;;;;;;;;5039159;28;20029;-78
2022/12/31 13:02:56;;;;;;;97.65;55.47;;;;;;;;;;5037380;28;20036;-78
2022/12/31 13:05:40;;;;;;;93.53;54.78;;;;;;;;;;5055469;28;20037;-78
2022/12/31 13:08:16;;;;;;;101.10;57.53;;;;;;;;;;5038775;28;20124;-78
2022/12/31 13:10:48;;;;;;;100.78;57.95;;;;;;;;;;5037328;28;20040;-78
2022/12/31 13:13:28;;;;;;;103.93;60.58;;;;;;;;;;5054695;28;20033;-79
2022/12/31 13:16:13;;;;;;;106.57;61.95;;;;;;;;;;5036885;28;20371;-78
2022/12/31 13:18:58;;;;;;;103.38;57.35;;;;;;;;;;5054882;28;20029;-78
2022/12/31 13:21:34;;;;;;;104.75;62.25;;;;;;;;;;5037490;28;20024;-78
2022/12/31 13:24:13;;;;;;;123.05;65.47;;;;;;;;;;5053446;28;20075;-77
2022/12/31 13:26:57;;;;;;;115.95;61.15;;;;;;;;;;5021994;28;20032;-77
2022/12/31 13:29:24;;;;;;;110.13;60.05;;;;;;;;;;5045295;28;20053;-77
2022/12/31 13:31:50;;;;;;;108.55;61.92;;;;;;;;;;5055573;28;20139;-77
2022/12/31 13:34:24;;;;;;;118.82;66.35;;;;;;;;;;5037215;28;20081;-77
2022/12/31 13:36:52;;;;;;;125.60;69.85;;;;;;;;;;5036956;28;20053;-77
2022/12/31 13:39:28;;;;;;;124.55;65.43;;;;;;;;;;5037055;28;20377;-78
2022/12/31 13:42:00;;;;;;;117.15;66.82;;;;;;;;;;5053182;28;20041;-78
2022/12/31 13:44:35;;;;;;;118.30;66.28;;;;;;;;;;5037027;28;20135;-77
2022/12/31 13:47:16;;;;;;;124.78;67.45;;;;;;;;;;5036731;28;20025;-78
2022/12/31 13:49:56;;;;;;;122.38;66.43;;;;;;;;;;5054471;28;20029;-77
2022/12/31 13:52:46;;;;;;;125.28;67.38;;;;;;;;;;5036449;28;20025;-78
2022/12/31 13:55:22;;;;;;;127.60;69.28;;;;;;;;;;5054571;28;20028;-77
2022/12/31 13:58:13;;;;;;;120.80;66.25;;;;;;;;;;5037040;28;20071;-77
2022/12/31 14:00:42;;;;;;;109.93;59.80;;;;;;;;;;5038879;28;20021;-77
2022/12/31 14:03:16;;;;;;;120.50;64.18;;;;;;;;;;5036638;28;20458;-77
2022/12/31 14:05:43;;;;;;;120.88;63.22;;;;;;;;;;5053867;28;20025;-79
2022/12/31 14:08:09;;;;;;;127.82;69.80;;;;;;;;;;5019965;28;20029;-78
2022/12/31 14:10:40;;;;;;;141.02;73.28;;;;;;;;;;5019920;28;20365;-77
2022/12/31 14:13:12;;;;;;;125.22;65.55;;;;;;;;;;5019801;28;20116;-76
2022/12/31 14:15:47;;;;;;;112.47;64.25;;;;;;;;;;5035975;28;20469;-77
2022/12/31 14:18:33;;;;;;;112.47;61.97;;;;;;;;;;5038254;28;20062;-77
2022/12/31 14:21:09;;;;;;;110.07;61.10;;;;;;;;;;5040776;28;20114;-77
2022/12/31 14:24:02;;;;;;;135.38;77.40;;;;;;;;;;5024066;28;20039;-77
2022/12/31 14:26:36;;;;;;;127.15;69.40;;;;;;;;;;5057895;28;20029;-77
2022/12/31 14:29:02;;;;;;;120.95;68.28;;;;;;;;;;5040456;28;20021;-76
2022/12/31 14:31:50;;;;;;;110.53;58.63;;;;;;;;;;5058001;28;20374;-77
2022/12/31 14:34:48;;;;;;;102.78;52.15;;;;;;;;;;5057646;28;20446;-76
2022/12/31 14:37:37;;;;;;;85.22;45.38;;;;;;;;;;5040303;28;20037;-77
2022/12/31 14:40:21;;;;;;;111.65;58.38;;;;;;;;;;5027795;28;20048;-78
2022/12/31 14:43:14;;;;;;;108.47;57.83;;;;;;;;;;5040105;28;20029;-77
2022/12/31 14:46:20;;;;;;;97.15;51.35;;;;;;;;;;5039959;28;20036;-78
2022/12/31 14:49:23;;;;;;;95.25;53.75;;;;;;;;;;5039592;28;20025;-77